createdAt,value
2018-07-21T00:01:41.355Z,65.30
2018-07-21T00:04:08.977Z,64.50
2018-07-21T00:06:36.573Z,64.50
2018-07-21T00:09:07.533Z,65.20
2018-07-21T00:11:35.288Z,66.00
2018-07-21T00:14:03.202Z,66.50
2018-07-21T00:16:31.059Z,66.00
2018-07-21T00:18:58.693Z,65.70
2018-07-21T00:21:26.282Z,65.80
2018-07-21T00:23:53.855Z,65.80
2018-07-21T00:26:21.442Z,65.90
2018-07-21T00:28:49.294Z,65.90
2018-07-21T00:31:17.174Z,66.60
2018-07-21T00:33:44.737Z,67.30
2018-07-21T00:36:12.593Z,66.50
2018-07-21T00:38:40.171Z,66.80
2018-07-21T00:41:07.784Z,67.60
2018-07-21T00:43:35.518Z,67.70
2018-07-21T00:46:03.505Z,67.80
2018-07-21T00:48:31.367Z,68.50
2018-07-21T00:50:59.388Z,68.50
2018-07-21T00:53:30.946Z,68.60
2018-07-21T00:55:59.024Z,67.30
2018-07-21T00:58:26.887Z,65.90
2018-07-21T01:00:55.000Z,66.40
2018-07-21T01:03:22.758Z,67.10
2018-07-21T01:05:50.574Z,65.60
2018-07-21T01:08:18.374Z,66.00
2018-07-21T01:10:46.216Z,66.00
2018-07-21T01:13:14.145Z,65.50
2018-07-21T01:15:41.918Z,65.30
2018-07-21T01:18:09.769Z,66.00
2018-07-21T01:20:37.402Z,64.30
2018-07-21T01:23:05.453Z,63.10
2018-07-21T01:25:33.462Z,63.60
2018-07-21T01:28:01.424Z,63.80
2018-07-21T01:30:29.558Z,63.50
2018-07-21T01:32:57.380Z,63.10
2018-07-21T01:35:26.158Z,63.00
2018-07-21T01:37:55.368Z,62.20
2018-07-21T01:40:24.913Z,63.50
2018-07-21T01:42:54.826Z,64.20
2018-07-21T01:45:22.665Z,64.00
2018-07-21T01:47:51.276Z,64.40
2018-07-21T01:50:19.200Z,64.70
2018-07-21T01:52:47.040Z,64.80
2018-07-21T01:55:16.511Z,65.50
2018-07-21T01:57:44.910Z,66.10
2018-07-21T02:00:14.235Z,65.70
2018-07-21T02:02:43.959Z,66.10
2018-07-21T02:05:12.025Z,65.70
2018-07-21T02:07:39.844Z,65.80
2018-07-21T02:10:07.629Z,65.90
2018-07-21T02:12:36.461Z,66.00
2018-07-21T02:15:04.549Z,65.80
2018-07-21T02:17:32.542Z,64.80
2018-07-21T02:20:01.233Z,65.20
2018-07-21T02:22:29.960Z,65.60
2018-07-21T02:24:58.841Z,65.90
2018-07-21T02:27:29.523Z,66.00
2018-07-21T02:29:59.113Z,66.20
2018-07-21T02:32:28.677Z,66.30
2018-07-21T02:34:56.570Z,66.80
2018-07-21T02:37:24.428Z,67.10
2018-07-21T02:39:53.113Z,66.70
2018-07-21T02:42:20.833Z,67.00
2018-07-21T02:44:48.700Z,66.90
2018-07-21T02:47:16.531Z,67.40
2018-07-21T02:49:45.083Z,67.50
2018-07-21T02:52:14.327Z,67.60
2018-07-21T02:54:43.660Z,67.40
2018-07-21T02:57:11.735Z,67.60
2018-07-21T02:59:41.188Z,67.20
2018-07-21T03:02:09.763Z,66.90
2018-07-21T03:04:39.410Z,67.10
2018-07-21T03:07:07.412Z,66.90
2018-07-21T03:09:35.183Z,66.90
2018-07-21T03:12:03.285Z,67.60
2018-07-21T03:14:31.481Z,67.80
2018-07-21T03:17:02.259Z,67.60
2018-07-21T03:19:36.055Z,67.40
2018-07-21T03:22:04.106Z,67.00
2018-07-21T03:24:32.183Z,66.90
2018-07-21T03:27:01.829Z,66.80
2018-07-21T03:29:29.771Z,66.70
2018-07-21T03:31:58.293Z,66.70
2018-07-21T03:34:26.797Z,67.10
2018-07-21T03:36:54.746Z,67.10
2018-07-21T03:39:24.976Z,67.40
2018-07-21T03:41:53.478Z,67.40
2018-07-21T03:44:21.382Z,67.50
2018-07-21T03:46:49.299Z,67.60
2018-07-21T03:49:18.657Z,68.10
2018-07-21T03:51:47.850Z,68.30
2018-07-21T03:54:19.630Z,68.70
2018-07-21T03:56:48.049Z,69.30
2018-07-21T03:59:15.608Z,68.80
2018-07-21T04:01:43.256Z,68.70
2018-07-21T04:04:10.834Z,68.90
2018-07-21T04:06:38.452Z,69.80
2018-07-21T04:09:07.266Z,70.00
2018-07-21T04:11:35.208Z,70.10
2018-07-21T04:14:03.301Z,70.40
2018-07-21T04:16:31.827Z,70.60
2018-07-21T04:19:02.957Z,70.90
2018-07-21T04:21:32.570Z,70.70
2018-07-21T04:24:01.694Z,70.50
2018-07-21T04:26:31.838Z,71.00
2018-07-21T04:29:02.113Z,70.40
2018-07-21T04:31:32.314Z,70.30
2018-07-21T04:34:01.553Z,70.80
2018-07-21T04:36:33.254Z,71.20
2018-07-21T04:39:02.046Z,70.80
2018-07-21T04:41:31.726Z,70.50
2018-07-21T04:44:01.522Z,70.50
2018-07-21T04:46:32.578Z,70.50
2018-07-21T04:49:03.247Z,70.20
2018-07-21T04:51:32.143Z,70.30
2018-07-21T04:54:01.901Z,69.50
2018-07-21T04:56:32.332Z,70.50
2018-07-21T04:59:02.017Z,70.00
2018-07-21T05:01:31.129Z,70.30
2018-07-21T05:04:03.326Z,70.60
2018-07-21T05:06:34.171Z,70.20
2018-07-21T05:09:07.143Z,69.70
2018-07-21T05:11:35.332Z,69.10
2018-07-21T05:14:04.153Z,68.30
2018-07-21T05:16:33.898Z,67.80
2018-07-21T05:19:02.673Z,67.80
2018-07-21T05:21:33.350Z,67.10
2018-07-21T05:24:02.852Z,66.30
2018-07-21T05:26:39.767Z,66.10
2018-07-21T05:29:07.600Z,65.20
2018-07-21T05:31:36.564Z,65.50
2018-07-21T05:34:05.632Z,65.60
2018-07-21T05:36:33.257Z,64.50
2018-07-21T05:39:00.932Z,64.50
2018-07-21T05:41:28.538Z,64.60
2018-07-21T05:43:56.274Z,64.10
2018-07-21T05:46:23.937Z,63.40
2018-07-21T05:48:51.565Z,63.50
2018-07-21T05:51:19.132Z,63.20
2018-07-21T05:53:46.724Z,63.90
2018-07-21T05:56:14.341Z,64.60
2018-07-21T05:58:42.013Z,65.00
2018-07-21T06:01:09.778Z,64.70
2018-07-21T06:03:37.697Z,65.00
2018-07-21T06:06:06.354Z,64.30
2018-07-21T06:08:36.157Z,64.00
2018-07-21T06:11:05.562Z,63.30
2018-07-21T06:13:35.205Z,62.00
2018-07-21T06:16:04.658Z,61.80
2018-07-21T06:18:34.892Z,60.80
2018-07-21T06:21:05.623Z,60.30
2018-07-21T06:23:35.375Z,58.80
2018-07-21T06:26:05.281Z,56.80
2018-07-21T06:28:34.392Z,53.80
2018-07-21T06:31:02.504Z,51.90
2018-07-21T06:33:31.283Z,50.10
2018-07-21T06:35:59.977Z,48.10
2018-07-21T06:38:27.897Z,48.20
2018-07-21T06:41:00.001Z,47.00
2018-07-21T06:43:35.429Z,45.00
2018-07-21T06:46:08.275Z,43.00
2018-07-21T06:48:37.156Z,43.30
2018-07-21T06:51:09.161Z,43.80
2018-07-21T06:53:37.187Z,41.60
2018-07-21T06:56:06.966Z,41.10
2018-07-21T06:58:38.759Z,40.50
2018-07-21T07:01:07.694Z,41.00
2018-07-21T07:03:35.895Z,41.50
2018-07-21T07:06:05.767Z,42.50
2018-07-21T07:08:37.482Z,44.00
2018-07-21T07:11:08.421Z,46.00
2018-07-21T07:13:37.509Z,46.40
2018-07-21T07:16:07.178Z,46.80
2018-07-21T07:18:37.308Z,46.80
2018-07-21T07:21:06.286Z,47.20
2018-07-21T07:23:36.069Z,46.80
2018-07-21T07:26:06.488Z,45.90
2018-07-21T07:28:35.110Z,44.20
2018-07-21T07:31:05.444Z,44.90
2018-07-21T07:33:35.316Z,45.90
2018-07-21T07:36:05.608Z,47.40
2018-07-21T07:38:33.769Z,48.20
2018-07-21T07:41:06.052Z,48.90
2018-07-21T07:43:35.448Z,49.50
2018-07-21T07:46:05.009Z,49.70
2018-07-21T07:48:33.753Z,49.40
2018-07-21T07:51:09.031Z,47.90
2018-07-21T07:53:37.209Z,44.60
2018-07-21T07:56:06.325Z,41.20
2018-07-21T07:58:35.839Z,37.80
2018-07-21T08:01:07.459Z,37.40
2018-07-21T08:03:36.433Z,36.50
2018-07-21T08:06:05.889Z,34.50
2018-07-21T08:08:34.459Z,33.00
2018-07-21T08:11:05.325Z,31.90
2018-07-21T08:13:36.194Z,31.10
2018-07-21T08:16:05.145Z,31.50
2018-07-21T08:18:37.070Z,30.00
2018-07-21T08:21:05.590Z,30.10
2018-07-21T08:23:35.508Z,29.10
2018-07-21T08:26:06.598Z,29.00
2018-07-21T08:28:37.806Z,28.50
2018-07-21T08:31:05.833Z,27.70
2018-07-21T08:33:35.964Z,26.80
2018-07-21T08:36:06.561Z,27.80
2018-07-21T08:38:35.893Z,28.30
2018-07-21T08:41:05.053Z,28.20
2018-07-21T08:43:32.768Z,28.40
2018-07-21T08:46:04.617Z,27.20
2018-07-21T08:48:39.561Z,27.00
2018-07-21T08:51:07.577Z,26.50
2018-07-21T08:53:51.576Z,26.30
2018-07-21T08:56:39.331Z,25.60
2018-07-21T08:59:32.269Z,25.50
2018-07-21T09:02:16.436Z,26.50
2018-07-21T09:07:53.594Z,25.70
2018-07-21T09:10:44.350Z,26.20
2018-07-21T09:13:30.760Z,25.20
2018-07-21T09:16:10.637Z,24.80
2018-07-21T09:18:45.322Z,25.10
2018-07-21T09:21:33.868Z,24.30
2018-07-21T09:24:10.917Z,24.00
2018-07-21T09:26:42.420Z,23.60
2018-07-21T09:29:10.072Z,23.50
2018-07-21T09:31:37.978Z,25.50
2018-07-21T09:34:05.607Z,25.40
2018-07-21T09:36:33.162Z,25.10
2018-07-21T09:39:00.781Z,23.80
2018-07-21T09:41:28.397Z,23.50
2018-07-21T09:43:56.215Z,23.80
2018-07-21T09:46:23.843Z,24.40
2018-07-21T09:48:51.407Z,24.80
2018-07-21T09:51:19.010Z,24.20
2018-07-21T09:53:46.593Z,23.40
2018-07-21T09:56:14.154Z,23.10
2018-07-21T09:58:41.898Z,23.70
2018-07-21T10:01:09.804Z,23.80
2018-07-21T10:03:38.130Z,23.70
2018-07-21T10:06:05.957Z,24.00
2018-07-21T10:08:33.572Z,23.90
2018-07-21T10:11:01.177Z,23.20
2018-07-21T10:13:28.763Z,22.80
2018-07-21T10:15:56.748Z,23.40
2018-07-21T10:18:24.489Z,23.20
2018-07-21T10:20:52.094Z,22.70
2018-07-21T10:23:19.720Z,23.00
2018-07-21T10:25:53.082Z,23.40
2018-07-21T10:28:26.298Z,23.00
2018-07-21T10:30:54.028Z,23.90
2018-07-21T10:33:21.664Z,25.30
2018-07-21T10:35:49.214Z,23.80
2018-07-21T10:38:16.758Z,23.30
2018-07-21T10:40:44.322Z,23.00
2018-07-21T10:43:11.941Z,22.90
2018-07-21T10:45:39.601Z,22.90
2018-07-21T10:48:07.690Z,22.90
2018-07-21T10:50:35.283Z,23.70
2018-07-21T10:53:02.829Z,23.10
2018-07-21T10:55:30.418Z,23.00
2018-07-21T10:57:58.128Z,24.40
2018-07-21T11:00:25.736Z,23.70
2018-07-21T11:02:53.276Z,24.10
2018-07-21T11:05:20.873Z,23.30
2018-07-21T11:07:48.443Z,23.40
2018-07-21T11:10:16.085Z,24.30
2018-07-21T11:12:43.637Z,25.00
2018-07-21T11:15:11.313Z,25.30
2018-07-21T11:17:38.972Z,25.70
2018-07-21T11:20:07.011Z,27.40
2018-07-21T11:22:35.227Z,29.10
2018-07-21T11:25:02.884Z,29.00
2018-07-21T11:27:30.448Z,29.70
2018-07-21T11:29:58.008Z,30.10
2018-07-21T11:32:25.645Z,30.00
2018-07-21T11:34:53.353Z,30.90
2018-07-21T11:37:21.159Z,31.80
2018-07-21T11:39:48.837Z,31.20
2018-07-21T11:42:16.425Z,30.50
2018-07-21T11:44:44.289Z,30.30
2018-07-21T11:47:11.948Z,29.90
2018-07-21T11:49:39.676Z,30.40
2018-07-21T11:52:07.503Z,30.70
2018-07-21T11:54:35.268Z,31.10
2018-07-21T11:57:02.903Z,30.70
2018-07-21T11:59:31.556Z,30.70
2018-07-21T12:01:59.167Z,31.00
2018-07-21T12:04:27.616Z,30.60
2018-07-21T12:06:55.229Z,30.60
2018-07-21T12:09:23.263Z,30.30
2018-07-21T12:11:50.867Z,30.10
2018-07-21T12:14:18.519Z,29.90
2018-07-21T12:16:46.233Z,30.00
2018-07-21T12:19:15.737Z,29.80
2018-07-21T12:21:43.440Z,29.60
2018-07-21T12:24:11.096Z,29.60
2018-07-21T12:26:38.878Z,29.60
2018-07-21T12:29:06.741Z,29.70
2018-07-21T12:31:34.325Z,30.00
2018-07-21T12:34:01.930Z,29.70
2018-07-21T12:36:29.542Z,29.90
2018-07-21T12:38:57.238Z,30.00
2018-07-21T12:41:24.857Z,29.80
2018-07-21T12:43:52.494Z,29.50
2018-07-21T12:46:20.053Z,29.80
2018-07-21T12:48:47.642Z,29.50
2018-07-21T12:51:15.288Z,29.50
2018-07-21T12:53:43.133Z,30.00
2018-07-21T12:56:10.848Z,30.30
2018-07-21T12:58:38.649Z,30.90
2018-07-21T13:01:06.608Z,30.80
2018-07-21T13:03:34.257Z,31.10
2018-07-21T13:06:01.840Z,30.80
2018-07-21T13:08:29.410Z,30.30
2018-07-21T13:10:57.079Z,30.00
2018-07-21T13:13:24.687Z,30.30
2018-07-21T13:15:52.504Z,30.00
2018-07-21T13:18:20.061Z,30.30
2018-07-21T13:20:50.270Z,30.00
2018-07-21T13:23:18.065Z,30.00
2018-07-21T13:25:45.642Z,30.20
2018-07-21T13:28:13.220Z,30.10
2018-07-21T13:30:40.981Z,31.00
2018-07-21T13:33:08.793Z,31.00
2018-07-21T13:35:36.527Z,31.10
2018-07-21T13:38:04.304Z,31.50
2018-07-21T13:40:31.873Z,31.00
2018-07-21T13:42:59.573Z,31.40
2018-07-21T13:45:27.265Z,31.80
2018-07-21T13:47:55.049Z,32.10
2018-07-21T13:50:22.663Z,32.40
2018-07-21T13:52:50.232Z,32.10
2018-07-21T13:55:17.804Z,32.00
2018-07-21T13:57:45.421Z,32.40
2018-07-21T14:00:13.095Z,32.30
2018-07-21T14:02:40.805Z,32.10
2018-07-21T14:05:08.677Z,32.20
2018-07-21T14:07:36.665Z,31.00
2018-07-21T14:10:05.651Z,31.80
2018-07-21T14:12:33.231Z,31.50
2018-07-21T14:15:00.829Z,30.90
2018-07-21T14:17:28.546Z,30.90
2018-07-21T14:19:56.187Z,30.80
2018-07-21T14:22:23.809Z,31.10
2018-07-21T14:24:51.429Z,31.10
2018-07-21T14:27:18.983Z,31.70
2018-07-21T14:29:46.901Z,31.60
2018-07-21T14:32:14.460Z,32.30
2018-07-21T14:34:42.070Z,32.00
2018-07-21T14:37:09.781Z,32.10
2018-07-21T14:39:37.576Z,32.40
2018-07-21T14:42:05.596Z,32.50
2018-07-21T14:44:33.217Z,32.60
2018-07-21T14:47:00.808Z,32.70
2018-07-21T14:49:28.501Z,32.90
2018-07-21T14:51:56.140Z,33.60
2018-07-21T14:54:23.865Z,36.20
2018-07-21T14:56:51.448Z,37.30
2018-07-21T14:59:19.074Z,38.10
2018-07-21T15:01:46.653Z,38.70
2018-07-21T15:04:14.245Z,39.50
2018-07-21T15:06:41.862Z,40.10
2018-07-21T15:09:10.760Z,41.00
2018-07-21T15:11:38.549Z,41.70
2018-07-21T15:14:06.364Z,42.40
2018-07-21T15:16:33.969Z,47.20
2018-07-21T15:19:01.506Z,52.80
2018-07-21T15:21:29.089Z,51.90
2018-07-21T15:23:56.848Z,55.50
2018-07-21T15:26:24.473Z,54.40
2018-07-21T15:28:53.622Z,55.60
2018-07-21T15:31:21.240Z,56.50
2018-07-21T15:33:50.279Z,57.80
2018-07-21T15:36:18.063Z,56.50
2018-07-21T15:38:45.822Z,59.50
2018-07-21T15:41:13.428Z,56.00
2018-07-21T15:43:41.113Z,57.60
2018-07-21T15:46:08.805Z,55.10
2018-07-21T15:48:36.552Z,54.10
2018-07-21T15:51:04.135Z,54.40
2018-07-21T15:53:31.716Z,52.30
2018-07-21T15:55:59.308Z,52.60
2018-07-21T15:58:26.873Z,53.00
2018-07-21T16:00:54.498Z,52.80
2018-07-21T16:03:22.108Z,51.20
2018-07-21T16:05:49.738Z,52.50
2018-07-21T16:08:17.328Z,56.00
2018-07-21T16:10:44.867Z,56.70
2018-07-21T16:13:12.456Z,58.00
2018-07-21T16:15:40.095Z,57.70
2018-07-21T16:18:07.897Z,58.50
2018-07-21T16:20:35.499Z,57.40
2018-07-21T16:23:03.145Z,57.30
2018-07-21T16:25:30.756Z,56.50
2018-07-21T16:27:58.345Z,57.40
2018-07-21T16:30:26.033Z,56.10
2018-07-21T16:32:53.617Z,55.50
2018-07-21T16:35:21.187Z,55.80
2018-07-21T16:37:49.058Z,55.90
2018-07-21T16:40:16.631Z,53.60
2018-07-21T16:42:44.168Z,54.20
2018-07-21T16:45:11.787Z,55.00
2018-07-21T16:47:39.549Z,55.50
2018-07-21T16:50:07.419Z,55.50
2018-07-21T16:52:35.058Z,56.70
2018-07-21T16:55:02.673Z,56.50
2018-07-21T16:57:30.217Z,56.70
2018-07-21T16:59:57.862Z,56.50
2018-07-21T17:02:25.457Z,56.50
2018-07-21T17:04:53.038Z,56.90
2018-07-21T17:07:20.636Z,56.80
2018-07-21T17:09:48.170Z,57.30
2018-07-21T17:12:15.812Z,57.20
2018-07-21T17:14:43.395Z,57.20
2018-07-21T17:17:11.267Z,57.10
2018-07-21T17:19:38.930Z,57.10
2018-07-21T17:22:06.652Z,58.00
2018-07-21T17:24:34.280Z,57.00
2018-07-21T17:27:01.839Z,56.70
2018-07-21T17:29:29.458Z,56.40
2018-07-21T17:31:57.052Z,55.80
2018-07-21T17:34:24.668Z,55.60
2018-07-21T17:36:52.321Z,55.50
2018-07-21T17:39:19.900Z,55.50
2018-07-21T17:41:47.490Z,55.50
2018-07-21T17:44:15.057Z,55.50
2018-07-21T17:46:42.677Z,55.20
2018-07-21T17:49:10.328Z,55.20
2018-07-21T17:51:38.020Z,55.50
2018-07-21T17:54:05.671Z,55.80
2018-07-21T17:56:33.320Z,56.30
2018-07-21T17:59:00.888Z,56.00
2018-07-21T18:01:28.553Z,55.50
2018-07-21T18:03:56.129Z,55.10
2018-07-21T18:06:23.733Z,55.40
2018-07-21T18:08:51.346Z,55.20
2018-07-21T18:11:18.939Z,55.50
2018-07-21T18:13:46.546Z,55.30
2018-07-21T18:16:14.277Z,55.50
2018-07-21T18:18:41.886Z,55.70
2018-07-21T18:21:09.577Z,56.10
2018-07-21T18:23:37.348Z,56.00
2018-07-21T18:26:04.974Z,56.40
2018-07-21T18:28:32.557Z,56.40
2018-07-21T18:31:00.136Z,57.00
2018-07-21T18:33:27.799Z,57.80
2018-07-21T18:35:55.395Z,58.10
2018-07-21T18:38:23.012Z,59.00
2018-07-21T18:40:50.568Z,60.20
2018-07-21T18:43:18.125Z,59.80
2018-07-21T18:45:45.684Z,60.10
2018-07-21T18:48:13.412Z,60.10
2018-07-21T18:50:41.077Z,60.20
2018-07-21T18:53:08.773Z,60.30
2018-07-21T18:55:36.485Z,60.80
2018-07-21T18:58:04.064Z,62.00
2018-07-21T19:00:31.653Z,61.40
2018-07-21T19:02:59.292Z,63.00
2018-07-21T19:05:26.858Z,62.40
2018-07-21T19:07:54.505Z,62.80
2018-07-21T19:10:22.085Z,62.80
2018-07-21T19:12:49.949Z,62.70
2018-07-21T19:17:24.197Z,63.20
2018-07-21T19:19:57.278Z,62.30
2018-07-21T19:22:25.091Z,62.70
2018-07-21T19:24:52.680Z,63.30
2018-07-21T19:27:25.872Z,63.60
2018-07-21T19:29:53.474Z,63.80
2018-07-21T19:32:26.626Z,62.80
2018-07-21T19:34:54.253Z,62.00
2018-07-21T19:37:27.324Z,60.50
2018-07-21T19:39:55.042Z,60.20
2018-07-21T19:42:22.596Z,60.00
2018-07-21T19:44:50.256Z,59.80
2018-07-21T19:47:17.942Z,60.00
2018-07-21T19:49:45.407Z,59.70
2018-07-21T19:52:13.022Z,59.80
2018-07-21T19:54:40.649Z,59.90
2018-07-21T19:57:08.437Z,60.00
2018-07-21T19:59:36.095Z,59.80
2018-07-21T20:02:03.729Z,60.00
2018-07-21T20:04:31.319Z,60.10
2018-07-21T20:06:58.876Z,60.00
2018-07-21T20:09:26.531Z,60.00
2018-07-21T20:11:54.121Z,60.10
2018-07-21T20:14:21.836Z,60.00
2018-07-21T20:16:49.400Z,59.80
2018-07-21T20:19:17.005Z,59.50
2018-07-21T20:21:44.561Z,59.50
2018-07-21T20:24:12.203Z,59.30
2018-07-21T20:26:39.854Z,59.30
2018-07-21T20:29:07.583Z,59.20
2018-07-21T20:31:35.186Z,59.30
2018-07-21T20:34:02.764Z,59.50
2018-07-21T20:36:30.364Z,59.70
2018-07-21T20:38:57.956Z,60.20
2018-07-21T20:41:25.650Z,60.60
2018-07-21T20:43:53.257Z,60.70
2018-07-21T20:46:20.845Z,61.20
2018-07-21T20:48:48.452Z,61.30
2018-07-21T20:51:16.019Z,61.70
2018-07-21T20:53:43.571Z,62.10
2018-07-21T20:56:11.291Z,62.40
2018-07-21T20:58:39.011Z,62.60
2018-07-21T21:01:06.937Z,63.00
2018-07-21T21:03:34.528Z,63.10
2018-07-21T21:06:02.376Z,63.30
2018-07-21T21:08:29.957Z,63.40
2018-07-21T21:10:57.609Z,63.60
2018-07-21T21:13:25.388Z,63.80
2018-07-21T21:15:52.945Z,64.00
2018-07-21T21:18:20.560Z,64.00
2018-07-21T21:20:48.213Z,64.00
2018-07-21T21:23:16.005Z,64.20
2018-07-21T21:25:43.662Z,64.60
2018-07-21T21:28:11.225Z,65.00
2018-07-21T21:30:38.780Z,65.30
2018-07-21T21:33:06.377Z,65.20
2018-07-21T21:35:34.084Z,65.60
2018-07-21T21:38:01.646Z,65.80
2018-07-21T21:40:29.294Z,66.00
2018-07-21T21:42:57.053Z,66.30
2018-07-21T21:45:24.621Z,66.50
2018-07-21T21:47:52.200Z,66.30
2018-07-21T21:50:19.758Z,66.50
2018-07-21T21:52:47.516Z,66.90
2018-07-21T21:55:15.110Z,67.10
2018-07-21T21:57:42.799Z,67.20
2018-07-21T22:00:11.789Z,67.40
2018-07-21T22:02:39.886Z,67.60
2018-07-21T22:05:07.501Z,68.10
2018-07-21T22:07:35.046Z,68.20
2018-07-21T22:10:02.696Z,68.60
2018-07-21T22:12:30.340Z,68.50
2018-07-21T22:14:58.093Z,68.90
2018-07-21T22:17:25.894Z,69.30
2018-07-21T22:19:53.454Z,69.20
2018-07-21T22:22:21.085Z,69.40
2018-07-21T22:24:48.641Z,69.60
2018-07-21T22:27:16.346Z,69.80
2018-07-21T22:29:44.234Z,69.80
2018-07-21T22:32:12.033Z,69.90
2018-07-21T22:34:39.718Z,70.10
2018-07-21T22:37:07.964Z,70.10
2018-07-21T22:39:35.780Z,70.20
2018-07-21T22:42:03.399Z,70.40
2018-07-21T22:44:31.183Z,70.20
2018-07-21T22:46:58.821Z,69.80
2018-07-21T22:49:26.384Z,69.40
2018-07-21T22:51:53.953Z,69.80
2018-07-21T22:54:21.530Z,69.00
2018-07-21T22:56:49.122Z,68.90
2018-07-21T22:59:16.825Z,69.50
2018-07-21T23:01:44.554Z,68.90
2018-07-21T23:04:12.390Z,68.80
2018-07-21T23:06:40.389Z,69.10
2018-07-21T23:09:08.603Z,69.20
2018-07-21T23:11:36.413Z,69.50
2018-07-21T23:14:04.064Z,69.40
2018-07-21T23:16:31.685Z,69.90
2018-07-21T23:18:59.350Z,70.20
2018-07-21T23:21:27.030Z,70.50
2018-07-21T23:23:54.629Z,70.50
2018-07-21T23:26:22.176Z,70.90
2018-07-21T23:28:49.791Z,70.80
2018-07-21T23:31:17.369Z,70.50
2018-07-21T23:33:45.022Z,70.10
2018-07-21T23:36:13.015Z,69.70
2018-07-21T23:38:40.952Z,69.80
2018-07-21T23:41:08.578Z,69.60
2018-07-21T23:43:36.165Z,68.80
2018-07-21T23:46:03.765Z,68.30
2018-07-21T23:48:31.421Z,67.40
2018-07-21T23:50:59.007Z,67.50
2018-07-21T23:53:26.637Z,65.80
2018-07-21T23:55:54.188Z,64.40
2018-07-21T23:58:21.727Z,64.00
